Time;durP1;ratioP1;P1;durP2;ratioP2;P2;SDS_P1;SDS_P2;PMS_P1;PMS_P2;Temp;Humidity;BMP_temperature;BMP_pressure;BME280_temperature;BME280_humidity;BME280_pressure;Samples;Min_cycle;Max_cycle;Signal;HPM_P1;HPM_P2
2022/03/13 04:02:34;;;;;;;1.67;1.30;;;13.90;46.10;;;;;;4998361;23;45175;-60
2022/03/13 04:05:00;;;;;;;2.90;1.90;;;13.90;46.10;;;;;;5011915;28;45184;-61
2022/03/13 04:07:26;;;;;;;2.40;1.80;;;13.90;46.10;;;;;;5004295;28;45345;-57
2022/03/13 04:09:52;;;;;;;2.72;1.63;;;13.90;46.10;;;;;;5012100;28;45126;-58
2022/03/13 04:12:18;;;;;;;2.10;1.60;;;13.90;46.10;;;;;;5016684;28;45350;-58
2022/03/13 04:14:44;;;;;;;2.47;1.75;;;13.90;46.10;;;;;;5018369;28;45252;-58
2022/03/13 04:17:09;;;;;;;1.88;1.52;;;13.90;46.20;;;;;;5009801;28;45503;-54
2022/03/13 04:19:35;;;;;;;2.50;1.70;;;13.90;46.10;;;;;;5013309;28;46081;-58
2022/03/13 04:22:01;;;;;;;2.00;1.50;;;13.90;46.20;;;;;;5012439;28;45218;-60
2022/03/13 04:24:29;;;;;;;2.58;1.63;;;13.90;46.20;;;;;;5013484;28;45253;-59
2022/03/13 04:26:55;;;;;;;2.75;1.70;;;13.90;46.20;;;;;;5015336;28;45283;-58
2022/03/13 04:29:23;;;;;;;2.67;1.73;;;13.90;46.20;;;;;;5018636;28;46019;-55
2022/03/13 04:31:49;;;;;;;1.80;1.50;;;13.90;46.20;;;;;;5014392;28;45651;-57
2022/03/13 04:34:16;;;;;;;2.65;1.80;;;13.90;46.20;;;;;;5015390;28;45754;-59
2022/03/13 04:36:42;;;;;;;2.58;1.67;;;13.90;46.20;;;;;;5009559;28;45517;-57
2022/03/13 04:39:08;;;;;;;2.13;1.50;;;13.90;46.30;;;;;;5014341;28;45407;-56
2022/03/13 04:41:34;;;;;;;1.95;1.70;;;13.90;46.30;;;;;;5015543;28;46164;-60
2022/03/13 04:43:59;;;;;;;2.00;1.40;;;13.90;46.30;;;;;;5010525;28;45440;-58
2022/03/13 04:46:25;;;;;;;2.05;1.52;;;13.90;46.30;;;;;;5013065;28;45626;-56
2022/03/13 04:48:51;;;;;;;1.85;1.52;;;13.90;46.30;;;;;;5016100;28;46755;-61
2022/03/13 04:51:16;;;;;;;2.72;1.85;;;13.90;46.30;;;;;;5011658;28;44807;-58
2022/03/13 04:53:42;;;;;;;2.53;1.75;;;13.90;46.30;;;;;;5019498;28;45563;-55
2022/03/13 04:56:08;;;;;;;1.83;1.40;;;13.90;46.30;;;;;;5014602;28;45094;-59
2022/03/13 04:58:33;;;;;;;2.33;1.70;;;13.80;46.30;;;;;;5016141;28;45146;-58
2022/03/13 05:00:59;;;;;;;1.58;1.33;;;13.80;46.30;;;;;;5009315;28;44749;-60
2022/03/13 05:03:26;;;;;;;2.45;1.95;;;13.90;46.40;;;;;;5012449;28;45385;-58
2022/03/13 05:05:53;;;;;;;2.97;1.75;;;13.80;46.40;;;;;;5016289;28;45217;-54
2022/03/13 05:08:18;;;;;;;2.53;1.60;;;13.80;46.40;;;;;;5014794;28;46898;-60
2022/03/13 05:10:45;;;;;;;2.25;1.65;;;13.80;46.40;;;;;;5014055;28;45098;-56
2022/03/13 05:13:12;;;;;;;2.10;1.60;;;13.80;46.40;;;;;;5013293;28;45299;-55
2022/03/13 05:15:39;;;;;;;2.53;1.52;;;13.80;46.40;;;;;;5010612;28;45192;-54
2022/03/13 05:18:04;;;;;;;2.97;1.90;;;13.80;46.40;;;;;;5016368;28;45295;-56
2022/03/13 05:20:31;;;;;;;1.92;1.50;;;13.80;46.40;;;;;;5014796;28;45279;-58
2022/03/13 05:22:57;;;;;;;2.47;1.83;;;13.80;46.40;;;;;;4999844;28;45206;-57
2022/03/13 05:25:29;;;;;;;2.42;1.70;;;13.80;46.40;;;;;;5016906;28;45286;-59
2022/03/13 05:27:55;;;;;;;1.63;1.42;;;13.80;46.40;;;;;;5017819;28;45321;-59
2022/03/13 05:30:20;;;;;;;2.00;1.52;;;13.80;46.40;;;;;;5012428;28;45342;-59
2022/03/13 05:32:47;;;;;;;2.28;1.75;;;13.80;46.40;;;;;;5012655;28;46917;-59
2022/03/13 05:35:14;;;;;;;2.03;1.58;;;13.80;46.40;;;;;;5013578;28;45246;-58
2022/03/13 05:37:39;;;;;;;2.60;1.90;;;13.80;46.40;;;;;;5016952;28;45287;-56
2022/03/13 05:40:06;;;;;;;2.00;1.42;;;13.80;46.40;;;;;;5012620;28;45228;-59
2022/03/13 05:42:31;;;;;;;1.67;1.30;;;13.80;46.50;;;;;;5011150;28;45317;-58
2022/03/13 05:44:57;;;;;;;2.17;1.75;;;13.70;46.40;;;;;;4996063;28;45334;-55
2022/03/13 05:47:23;;;;;;;2.45;1.80;;;13.70;46.40;;;;;;5015610;28;46126;-57
2022/03/13 05:49:48;;;;;;;2.50;1.55;;;13.80;47.10;;;;;;5010848;28;45280;-59
2022/03/13 05:52:15;;;;;;;2.13;1.60;;;13.70;46.40;;;;;;5016011;28;45481;-57
2022/03/13 05:54:42;;;;;;;2.60;1.60;;;13.70;46.40;;;;;;5013351;28;45272;-56
2022/03/13 05:57:09;;;;;;;1.80;1.30;;;13.70;46.40;;;;;;5011558;28;45265;-61
2022/03/13 05:59:38;;;;;;;1.88;1.50;;;13.80;46.40;;;;;;5015254;28;45867;-55
2022/03/13 06:02:04;;;;;;;1.67;1.40;;;13.90;46.20;;;;;;5017439;28;44783;-59
2022/03/13 06:04:36;;;;;;;2.13;1.50;;;14.00;46.00;;;;;;5003866;28;45554;-55
2022/03/13 06:07:03;;;;;;;1.75;1.60;;;14.10;45.90;;;;;;5010604;28;46940;-58
2022/03/13 06:09:29;;;;;;;2.60;1.63;;;13.90;45.90;;;;;;5009112;28;45450;-59
2022/03/13 06:11:54;;;;;;;1.75;1.40;;;13.90;46.10;;;;;;5004188;28;44695;-59
2022/03/13 06:14:21;;;;;;;2.78;2.00;;;13.80;46.20;;;;;;5010957;28;45292;-58
2022/03/13 06:16:46;;;;;;;2.20;1.80;;;13.80;46.30;;;;;;5006727;28;47442;-61
2022/03/13 06:19:12;;;;;;;3.05;2.10;;;13.80;46.30;;;;;;5010193;28;45031;-55
2022/03/13 06:21:41;;;;;;;2.28;1.55;;;13.80;46.30;;;;;;5009355;28;45559;-56
2022/03/13 06:24:07;;;;;;;2.05;1.60;;;13.70;46.30;;;;;;5008207;28;45528;-61
2022/03/13 06:26:33;;;;;;;1.67;1.33;;;13.80;46.30;;;;;;5011808;28;45428;-60
2022/03/13 06:28:58;;;;;;;1.60;1.48;;;13.80;46.30;;;;;;5013816;28;45344;-59
2022/03/13 06:31:24;;;;;;;2.00;1.50;;;13.80;46.30;;;;;;5012993;28;45740;-57
2022/03/13 06:33:50;;;;;;;2.38;1.65;;;13.80;46.30;;;;;;4994634;28;45660;-58
2022/03/13 06:36:15;;;;;;;1.80;1.42;;;13.70;46.20;;;;;;5014090;28;46311;-61
2022/03/13 06:38:41;;;;;;;1.92;1.27;;;13.80;46.90;;;;;;5013099;28;45537;-57
2022/03/13 06:41:07;;;;;;;2.10;1.75;;;13.80;46.30;;;;;;5013611;28;44668;-58
2022/03/13 06:43:34;;;;;;;2.47;1.80;;;13.80;46.20;;;;;;5013285;28;44927;-59
2022/03/13 06:46:01;;;;;;;2.50;1.90;;;13.80;46.20;;;;;;5013917;28;45217;-60
2022/03/13 06:48:26;;;;;;;2.45;1.73;;;13.80;46.10;;;;;;5013417;28;46658;-59
2022/03/13 06:50:53;;;;;;;2.30;1.50;;;13.90;46.20;;;;;;5014292;28;45394;-54
2022/03/13 06:53:19;;;;;;;2.10;1.58;;;13.80;46.10;;;;;;5013529;28;45249;-60
2022/03/13 06:55:44;;;;;;;1.38;1.27;;;13.80;46.10;;;;;;5013443;28;47508;-60
2022/03/13 06:58:10;;;;;;;2.25;1.65;;;13.80;46.10;;;;;;5010930;28;45289;-60
2022/03/13 07:00:36;;;;;;;2.38;1.77;;;13.80;46.10;;;;;;5010795;28;45892;-58
2022/03/13 07:03:01;;;;;;;3.90;1.60;;;13.90;46.10;;;;;;5027295;28;45594;-61
2022/03/13 07:05:27;;;;;;;1.55;1.45;;;13.90;46.10;;;;;;5007486;28;45280;-60
2022/03/13 07:07:57;;;;;;;2.35;1.60;;;13.90;46.10;;;;;;5010205;28;45355;-61
2022/03/13 07:10:23;;;;;;;2.42;1.80;;;13.80;46.00;;;;;;5009719;28;45724;-58
2022/03/13 07:12:48;;;;;;;2.22;1.60;;;13.80;46.00;;;;;;5012867;28;45413;-57
2022/03/13 07:15:14;;;;;;;1.98;1.77;;;13.90;46.00;;;;;;5011803;28;45652;-58
2022/03/13 07:17:41;;;;;;;2.05;1.70;;;13.90;46.00;;;;;;5012473;28;45383;-59
2022/03/13 07:20:07;;;;;;;2.00;1.50;;;13.90;45.90;;;;;;5010516;28;45281;-59
2022/03/13 07:22:33;;;;;;;1.73;1.50;;;13.90;45.90;;;;;;5027518;28;45307;-60
2022/03/13 07:24:58;;;;;;;2.58;1.67;;;13.90;45.90;;;;;;5012864;28;45370;-61
2022/03/13 07:27:24;;;;;;;2.38;1.80;;;13.90;45.90;;;;;;5026117;28;45312;-60
2022/03/13 07:29:51;;;;;;;1.95;1.50;;;13.90;45.90;;;;;;5007257;28;45806;-59
2022/03/13 07:32:17;;;;;;;1.23;1.13;;;13.90;45.90;;;;;;5009810;28;45338;-61
2022/03/13 07:34:42;;;;;;;2.13;1.52;;;13.90;45.90;;;;;;5006867;28;46987;-59
2022/03/13 07:37:10;;;;;;;1.98;1.50;;;13.90;45.90;;;;;;5012541;28;45172;-61
2022/03/13 07:39:37;;;;;;;1.80;1.48;;;13.90;45.90;;;;;;5011874;28;45339;-59
2022/03/13 07:42:03;;;;;;;2.35;1.65;;;13.90;46.00;;;;;;5011198;28;45547;-60
2022/03/13 07:44:29;;;;;;;1.70;1.42;;;13.90;46.00;;;;;;5008487;28;46088;-61
2022/03/13 07:46:54;;;;;;;1.75;1.50;;;13.90;46.00;;;;;;5008730;28;45587;-60
2022/03/13 07:49:20;;;;;;;2.30;1.52;;;13.90;46.00;;;;;;5013597;28;45369;-59
2022/03/13 07:51:46;;;;;;;1.50;1.30;;;13.90;46.00;;;;;;5011468;28;45394;-59
2022/03/13 07:54:13;;;;;;;2.17;1.67;;;13.90;46.00;;;;;;5010266;28;46008;-59
2022/03/13 07:56:38;;;;;;;2.45;1.60;;;13.90;46.00;;;;;;5011663;28;45459;-60
2022/03/13 07:59:04;;;;;;;2.05;1.55;;;13.90;46.00;;;;;;5010349;28;45297;-59
2022/03/13 08:01:29;;;;;;;2.08;1.40;;;14.00;46.00;;;;;;5005626;28;45288;-60
2022/03/13 08:03:55;;;;;;;2.47;1.73;;;14.00;46.20;;;;;;5004953;28;46335;-59
2022/03/13 08:06:21;;;;;;;1.92;1.30;;;14.00;46.00;;;;;;5009217;28;45592;-60
2022/03/13 08:08:46;;;;;;;2.05;1.40;;;14.00;46.00;;;;;;5000979;28;45359;-60
2022/03/13 08:11:12;;;;;;;2.05;1.50;;;14.00;46.00;;;;;;5011880;28;45322;-58
2022/03/13 08:13:38;;;;;;;1.70;1.50;;;14.10;46.00;;;;;;5009517;28;46922;-60
2022/03/13 08:16:03;;;;;;;1.75;1.33;;;14.10;46.00;;;;;;5014514;28;45038;-59
2022/03/13 08:18:29;;;;;;;2.20;1.67;;;14.10;46.00;;;;;;5015604;28;45391;-59
2022/03/13 08:20:56;;;;;;;2.67;1.83;;;14.10;46.00;;;;;;5010172;28;45424;-60
2022/03/13 08:23:22;;;;;;;1.80;1.35;;;14.10;46.00;;;;;;5004806;28;46169;-60
2022/03/13 08:25:48;;;;;;;1.73;1.50;;;14.10;46.00;;;;;;5005933;28;45439;-60
2022/03/13 08:28:13;;;;;;;1.98;1.55;;;14.10;46.00;;;;;;5006114;28;45635;-58
2022/03/13 08:30:39;;;;;;;2.05;1.55;;;14.10;46.00;;;;;;5003344;28;45259;-58
2022/03/13 08:33:05;;;;;;;1.85;1.45;;;14.10;46.00;;;;;;5007636;28;45813;-59
2022/03/13 08:35:31;;;;;;;1.70;1.52;;;14.10;46.00;;;;;;5012917;28;45789;-59
2022/03/13 08:37:57;;;;;;;2.53;1.60;;;14.20;46.00;;;;;;5010370;28;44942;-60
2022/03/13 08:40:26;;;;;;;1.65;1.40;;;14.20;46.00;;;;;;5011939;28;44854;-60
2022/03/13 08:42:55;;;;;;;1.67;1.33;;;14.20;45.90;;;;;;5004464;28;46322;-56
2022/03/13 08:45:20;;;;;;;2.40;1.77;;;14.20;45.90;;;;;;5009394;28;47516;-60
2022/03/13 08:47:47;;;;;;;2.60;1.80;;;14.20;45.80;;;;;;4998561;28;45019;-59
2022/03/13 08:50:14;;;;;;;2.53;1.70;;;14.20;46.40;;;;;;5008768;28;45427;-60
2022/03/13 08:52:40;;;;;;;1.98;1.38;;;14.20;45.80;;;;;;5011797;28;45441;-58
2022/03/13 08:55:08;;;;;;;1.52;1.30;;;14.20;45.80;;;;;;5007051;28;45539;-58
2022/03/13 08:57:34;;;;;;;2.05;1.73;;;14.20;45.70;;;;;;5011072;28;45424;-60
2022/03/13 09:00:00;;;;;;;2.20;1.58;;;14.20;45.70;;;;;;5009913;28;45159;-58
2022/03/13 09:02:26;;;;;;;1.50;1.23;;;14.30;45.80;;;;;;5011638;28;46222;-57
2022/03/13 09:04:51;;;;;;;1.33;1.23;;;14.30;45.80;;;;;;5003724;28;46789;-61
2022/03/13 09:07:17;;;;;;;1.88;1.38;;;14.30;45.70;;;;;;5012521;28;44759;-57
2022/03/13 09:09:43;;;;;;;2.85;1.83;;;14.30;45.70;;;;;;5013058;28;45546;-59
2022/03/13 09:12:09;;;;;;;1.88;1.45;;;14.30;45.70;;;;;;5008430;28;45680;-59
2022/03/13 09:14:35;;;;;;;2.25;1.60;;;14.30;45.70;;;;;;5006722;28;45572;-60
2022/03/13 09:17:01;;;;;;;2.75;1.92;;;14.30;45.70;;;;;;5010937;28;45043;-60
2022/03/13 09:19:28;;;;;;;3.42;2.05;;;14.30;45.70;;;;;;5008404;28;45367;-60
2022/03/13 09:21:53;;;;;;;1.73;1.33;;;14.30;45.70;;;;;;5011477;28;45997;-61
2022/03/13 09:24:19;;;;;;;2.28;1.55;;;14.30;45.70;;;;;;5013551;28;45206;-58
2022/03/13 09:26:45;;;;;;;1.75;1.38;;;14.30;45.70;;;;;;5011300;28;45567;-59
2022/03/13 09:29:10;;;;;;;1.90;1.70;;;14.30;45.60;;;;;;5007761;28;45228;-64
2022/03/13 09:31:36;;;;;;;1.90;1.67;;;14.30;45.60;;;;;;5006426;28;47053;-58
2022/03/13 09:34:02;;;;;;;1.85;1.40;;;14.40;45.60;;;;;;4996092;28;45268;-61
2022/03/13 09:36:28;;;;;;;2.55;1.83;;;14.40;46.20;;;;;;5012009;28;45983;-61
2022/03/13 09:38:54;;;;;;;2.33;1.52;;;14.40;45.60;;;;;;5006741;28;45510;-58
2022/03/13 09:41:19;;;;;;;2.60;1.58;;;14.40;45.60;;;;;;5008321;28;45364;-61
2022/03/13 09:43:45;;;;;;;1.58;1.42;;;14.40;45.60;;;;;;5011603;28;44700;-58
2022/03/13 09:46:11;;;;;;;2.38;1.73;;;14.40;45.60;;;;;;4995471;28;45532;-57
2022/03/13 09:48:37;;;;;;;1.77;1.40;;;14.40;45.60;;;;;;5011279;28;45292;-58
2022/03/13 09:51:09;;;;;;;1.98;1.50;;;14.50;45.60;;;;;;5010424;28;46110;-59
2022/03/13 09:53:34;;;;;;;2.40;1.70;;;14.40;45.60;;;;;;5013246;28;45333;-58
2022/03/13 09:56:01;;;;;;;1.95;1.48;;;14.50;45.60;;;;;;5008239;28;45382;-57
2022/03/13 09:58:28;;;;;;;1.83;1.50;;;14.50;45.60;;;;;;5007907;28;45307;-57
2022/03/13 10:00:54;;;;;;;1.55;1.30;;;14.50;45.60;;;;;;5008763;28;45936;-59
2022/03/13 10:03:19;;;;;;;2.08;1.67;;;14.50;45.60;;;;;;5013615;28;45524;-60
2022/03/13 10:05:47;;;;;;;1.27;1.17;;;14.50;45.60;;;;;;5010696;28;45425;-61
2022/03/13 10:08:13;;;;;;;1.40;1.30;;;14.50;45.60;;;;;;5016312;28;45292;-60
2022/03/13 10:10:46;;;;;;;2.47;1.70;;;14.50;45.60;;;;;;5014250;28;45504;-60
2022/03/13 10:13:15;;;;;;;2.30;1.38;;;14.50;45.60;;;;;;5012607;28;45221;-58
2022/03/13 10:15:44;;;;;;;1.95;1.40;;;14.50;45.60;;;;;;4996114;28;45480;-61
2022/03/13 10:18:11;;;;;;;1.60;1.30;;;14.50;45.60;;;;;;5031567;28;45404;-60
2022/03/13 10:20:39;;;;;;;2.85;1.77;;;14.50;45.60;;;;;;5014838;28;46096;-58
2022/03/13 10:23:10;;;;;;;2.17;1.50;;;14.50;45.60;;;;;;5014156;28;45272;-58
2022/03/13 10:25:37;;;;;;;2.17;1.65;;;14.50;45.60;;;;;;5008202;28;45448;-60
2022/03/13 10:28:22;;;;;;;2.50;1.65;;;14.50;45.60;;;;;;5013401;28;45495;-59
2022/03/13 10:30:49;;;;;;;2.25;1.60;;;14.60;45.70;;;;;;5012985;28;46004;-57
2022/03/13 10:33:14;;;;;;;1.48;1.38;;;14.60;45.70;;;;;;4994762;28;45219;-58
2022/03/13 10:35:40;;;;;;;1.90;1.45;;;14.60;45.70;;;;;;5004342;28;44972;-58
2022/03/13 10:38:19;;;;;;;2.47;1.50;;;14.60;45.70;;;;;;5004537;28;45143;-59
2022/03/13 10:40:58;;;;;;;1.85;1.38;;;14.60;45.80;;;;;;5018635;28;45037;-58
2022/03/13 10:43:27;;;;;;;1.75;1.33;;;14.60;45.70;;;;;;5012724;28;45542;-59
2022/03/13 10:45:54;;;;;;;2.40;1.60;;;14.60;45.70;;;;;;5012055;28;45397;-58
2022/03/13 10:48:39;;;;;;;1.92;1.50;;;14.60;45.70;;;;;;5005361;28;45479;-60
2022/03/13 10:51:12;;;;;;;1.88;1.45;;;14.60;45.70;;;;;;5012251;28;45909;-60
2022/03/13 10:53:41;;;;;;;1.98;1.33;;;14.60;45.70;;;;;;5019459;28;45113;-61
2022/03/13 10:56:11;;;;;;;2.70;1.73;;;14.60;45.60;;;;;;5007667;28;45403;-58
2022/03/13 10:58:42;;;;;;;2.00;1.40;;;14.60;45.60;;;;;;5010098;28;45645;-61
2022/03/13 11:01:16;;;;;;;1.85;1.40;;;14.60;45.60;;;;;;4996728;28;46906;-60
2022/03/13 11:03:52;;;;;;;1.95;1.67;;;14.60;45.70;;;;;;5007473;28;45531;-60
2022/03/13 11:06:20;;;;;;;6.22;4.68;;;14.60;43.80;;;;;;5008616;28;45325;-59
2022/03/13 11:08:46;;;;;;;10.55;5.88;;;14.60;35.70;;;;;;5009700;28;45358;-59
2022/03/13 11:11:16;;;;;;;9.63;5.38;;;14.50;32.50;;;;;;5005380;28;46179;-58
2022/03/13 11:13:43;;;;;;;11.13;5.38;;;14.40;33.80;;;;;;5005271;28;45378;-58
2022/03/13 11:16:17;;;;;;;7.55;5.57;;;14.40;33.30;;;;;;5006673;28;45429;-59
2022/03/13 11:18:43;;;;;;;10.27;6.28;;;14.30;28.20;;;;;;5003250;28;44881;-59
2022/03/13 11:21:08;;;;;;;13.55;6.53;;;14.20;26.40;;;;;;5013778;28;45811;-58
2022/03/13 11:23:35;;;;;;;8.73;5.72;;;14.10;26.70;;;;;;5007110;28;45081;-59
2022/03/13 11:26:01;;;;;;;9.40;5.82;;;14.00;26.90;;;;;;5005314;28;45510;-59
2022/03/13 11:28:28;;;;;;;10.48;4.65;;;14.00;28.10;;;;;;5013676;28;45257;-61
2022/03/13 11:30:54;;;;;;;7.55;4.72;;;14.10;29.00;;;;;;4992303;28;46288;-62
2022/03/13 11:33:32;;;;;;;12.82;5.40;;;14.20;29.10;;;;;;5001397;28;45394;-56
2022/03/13 11:36:25;;;;;;;8.00;4.80;;;14.30;28.50;;;;;;5005305;28;45071;-57
2022/03/13 11:39:04;;;;;;;5.95;4.18;;;14.30;28.00;;;;;;5025084;28;45260;-54
2022/03/13 11:41:48;;;;;;;7.50;4.45;;;14.40;28.80;;;;;;5008084;28;46007;-56
2022/03/13 11:44:22;;;;;;;8.40;4.50;;;14.40;29.10;;;;;;5010814;28;45212;-58
2022/03/13 11:46:54;;;;;;;6.35;4.60;;;14.40;30.00;;;;;;5009609;28;45308;-57
2022/03/13 11:49:26;;;;;;;8.03;4.47;;;14.40;30.60;;;;;;5004542;28;46365;-53
2022/03/13 11:52:13;;;;;;;9.10;4.47;;;14.40;30.30;;;;;;5006010;28;45968;-56
2022/03/13 11:54:55;;;;;;;8.18;4.28;;;14.50;30.90;;;;;;5007913;28;44698;-55
2022/03/13 11:57:24;;;;;;;9.15;4.40;;;14.50;31.00;;;;;;5013142;28;45674;-58
2022/03/13 12:00:10;;;;;;;8.90;4.60;;;14.40;31.30;;;;;;5010216;28;45160;-57
2022/03/13 12:02:42;;;;;;;9.70;4.32;;;14.50;30.80;;;;;;4994716;28;45356;-58
2022/03/13 12:05:26;;;;;;;10.88;4.75;;;14.50;31.60;;;;;;5010146;28;45372;-59
2022/03/13 12:08:08;;;;;;;6.63;4.30;;;14.50;31.10;;;;;;5005955;28;45184;-55
2022/03/13 12:10:43;;;;;;;6.25;4.30;;;14.50;31.60;;;;;;5012879;28;45690;-60
2022/03/13 12:13:13;;;;;;;7.07;4.10;;;14.50;31.90;;;;;;5010514;28;46742;-59
2022/03/13 12:15:40;;;;;;;4.40;3.65;;;14.50;32.30;;;;;;5014095;28;45295;-59
2022/03/13 12:18:15;;;;;;;7.38;4.40;;;14.50;32.50;;;;;;5012087;28;45253;-59
2022/03/13 12:20:42;;;;;;;10.63;5.18;;;14.50;32.30;;;;;;5008368;28;45465;-60
2022/03/13 12:23:07;;;;;;;7.57;4.60;;;14.50;32.70;;;;;;5013917;28;45342;-59
2022/03/13 12:25:33;;;;;;;7.03;4.47;;;14.50;32.70;;;;;;5002534;28;45599;-58
2022/03/13 12:28:01;;;;;;;7.57;3.92;;;14.50;32.80;;;;;;5013029;28;45549;-58
2022/03/13 12:30:29;;;;;;;6.03;4.25;;;14.50;32.90;;;;;;5012765;28;44729;-55
2022/03/13 12:32:59;;;;;;;6.05;4.05;;;14.50;33.00;;;;;;5011744;28;46359;-55
2022/03/13 12:35:25;;;;;;;5.43;4.20;;;14.50;33.00;;;;;;4993238;28;45280;-55
2022/03/13 12:37:58;;;;;;;9.18;4.60;;;14.50;33.10;;;;;;5014996;28;44819;-58
2022/03/13 12:40:24;;;;;;;7.05;3.95;;;14.50;32.90;;;;;;5014711;28;45538;-58
2022/03/13 12:42:54;;;;;;;7.18;4.05;;;14.50;33.20;;;;;;5008652;28;47061;-58
2022/03/13 12:45:21;;;;;;;4.70;3.90;;;14.50;32.90;;;;;;5015519;28;45307;-57
2022/03/13 12:47:47;;;;;;;6.70;4.13;;;14.50;33.70;;;;;;5001615;28;45454;-57
2022/03/13 12:50:14;;;;;;;6.72;3.78;;;14.60;33.80;;;;;;5004850;28;46568;-57
2022/03/13 12:52:40;;;;;;;5.72;4.00;;;14.60;33.50;;;;;;5001742;28;45713;-58
2022/03/13 12:55:08;;;;;;;6.18;4.10;;;14.60;33.50;;;;;;5013019;28;45334;-57
2022/03/13 12:57:35;;;;;;;6.10;4.10;;;14.60;34.10;;;;;;5001283;28;44827;-56
2022/03/13 13:00:01;;;;;;;5.68;3.97;;;14.60;33.80;;;;;;5002437;28;45678;-56
2022/03/13 13:02:27;;;;;;;5.57;3.95;;;14.60;34.00;;;;;;4991971;28;46852;-55
2022/03/13 13:04:57;;;;;;;5.75;3.97;;;14.60;34.10;;;;;;5011095;28;46388;-56
2022/03/13 13:07:31;;;;;;;6.03;4.07;;;14.60;34.10;;;;;;5008250;28;45212;-57
2022/03/13 13:09:58;;;;;;;6.45;4.03;;;14.60;34.20;;;;;;5010598;28;45522;-56
2022/03/13 13:12:27;;;;;;;5.95;4.18;;;14.60;34.50;;;;;;5015876;28;45438;-59
2022/03/13 13:14:52;;;;;;;8.93;4.55;;;14.60;34.60;;;;;;4998648;28;45714;-57
2022/03/13 13:17:21;;;;;;;6.30;3.90;;;14.60;34.80;;;;;;4989789;28;45238;-59
2022/03/13 13:19:54;;;;;;;7.05;4.20;;;14.60;34.80;;;;;;5004348;28;45553;-58
2022/03/13 13:22:41;;;;;;;6.57;4.18;;;14.60;34.80;;;;;;5012819;28;45169;-56
2022/03/13 13:25:14;;;;;;;6.05;4.05;;;14.60;34.60;;;;;;5008122;28;44761;-57
2022/03/13 13:27:51;;;;;;;5.95;3.53;;;14.60;35.10;;;;;;5006414;28;44704;-61
2022/03/13 13:30:23;;;;;;;5.22;3.45;;;14.60;35.20;;;;;;5010662;28;45046;-57
2022/03/13 13:33:03;;;;;;;6.78;4.10;;;14.60;35.20;;;;;;5001437;28;45590;-58
2022/03/13 13:35:41;;;;;;;6.80;3.45;;;14.60;35.50;;;;;;5005447;28;45177;-58
2022/03/13 13:38:08;;;;;;;6.38;3.65;;;14.60;35.60;;;;;;5002788;28;45442;-56
2022/03/13 13:40:38;;;;;;;4.75;3.25;;;14.60;35.60;;;;;;5008370;28;45481;-59
2022/03/13 13:43:13;;;;;;;5.07;3.45;;;14.60;35.70;;;;;;5008321;28;46417;-59
2022/03/13 13:45:48;;;;;;;4.82;3.70;;;14.60;35.80;;;;;;5001391;28;45560;-56
2022/03/13 13:48:28;;;;;;;5.60;3.47;;;14.60;35.90;;;;;;5004175;28;44664;-59
2022/03/13 13:51:19;;;;;;;5.13;3.35;;;14.60;36.00;;;;;;5009962;28;45296;-59
2022/03/13 13:53:55;;;;;;;6.68;3.80;;;14.60;36.00;;;;;;5011094;28;45035;-60
2022/03/13 13:56:28;;;;;;;6.75;3.30;;;14.60;36.10;;;;;;5008087;28;45561;-55
2022/03/13 13:58:55;;;;;;;5.85;3.38;;;14.60;36.40;;;;;;5000583;28;45292;-57
2022/03/13 14:01:22;;;;;;;6.90;4.10;;;14.60;36.40;;;;;;5007171;28;45429;-60
2022/03/13 14:03:48;;;;;;;4.95;3.03;;;14.60;36.50;;;;;;5012180;28;45963;-57
2022/03/13 14:06:15;;;;;;;4.65;3.63;;;14.50;36.60;;;;;;5013948;28;45721;-58
2022/03/13 14:08:40;;;;;;;9.45;3.70;;;14.50;36.60;;;;;;4990069;28;44914;-56
2022/03/13 14:11:06;;;;;;;5.30;3.30;;;14.50;36.80;;;;;;5011990;28;45688;-56
2022/03/13 14:13:32;;;;;;;4.55;3.40;;;14.50;36.80;;;;;;5005371;28;45820;-57
2022/03/13 14:15:57;;;;;;;5.57;3.80;;;14.50;36.90;;;;;;5007130;28;45231;-57
2022/03/13 14:18:23;;;;;;;5.47;3.45;;;14.50;37.50;;;;;;5014200;28;44737;-57
2022/03/13 14:20:49;;;;;;;4.40;3.10;;;14.50;37.00;;;;;;5003921;28;45146;-59
2022/03/13 14:23:14;;;;;;;4.97;3.53;;;14.60;37.10;;;;;;5009481;28;46136;-56
2022/03/13 14:25:41;;;;;;;5.07;3.63;;;14.60;37.20;;;;;;5008085;28;45183;-57
2022/03/13 14:28:10;;;;;;;5.97;3.80;;;14.60;37.20;;;;;;5011410;28;45316;-56
2022/03/13 14:30:36;;;;;;;5.13;3.08;;;14.60;37.30;;;;;;5009892;28;45101;-57
2022/03/13 14:33:02;;;;;;;5.05;3.35;;;14.60;37.30;;;;;;5006779;28;45234;-58
2022/03/13 14:35:28;;;;;;;5.18;3.50;;;14.60;37.40;;;;;;4995171;28;45286;-58
2022/03/13 14:37:54;;;;;;;5.93;3.28;;;14.60;37.40;;;;;;5004054;28;45284;-57
2022/03/13 14:40:19;;;;;;;4.82;3.08;;;14.60;37.50;;;;;;5002545;28;45427;-58
2022/03/13 14:42:46;;;;;;;4.90;3.58;;;14.60;37.60;;;;;;5004475;28;45729;-57
2022/03/13 14:45:12;;;;;;;5.13;3.00;;;14.60;37.60;;;;;;5012230;28;45392;-59
2022/03/13 14:47:38;;;;;;;5.03;3.20;;;14.60;37.60;;;;;;5009801;28;45622;-59
2022/03/13 14:50:04;;;;;;;6.40;3.25;;;14.60;38.30;;;;;;5011280;28;45633;-59
2022/03/13 14:52:29;;;;;;;5.80;3.08;;;14.60;37.70;;;;;;5008581;28;46126;-59
2022/03/13 14:54:55;;;;;;;5.57;3.53;;;14.60;37.80;;;;;;5012363;28;45254;-59
2022/03/13 14:57:20;;;;;;;5.15;3.13;;;14.60;37.80;;;;;;5013532;28;45555;-57
2022/03/13 14:59:46;;;;;;;6.10;3.30;;;14.70;37.90;;;;;;5016237;28;45546;-59
2022/03/13 15:02:11;;;;;;;4.85;3.33;;;14.60;37.90;;;;;;5013041;28;45347;-58
2022/03/13 15:04:38;;;;;;;7.80;3.20;;;14.60;37.90;;;;;;5013216;28;45121;-56
2022/03/13 15:07:04;;;;;;;4.22;3.05;;;14.60;38.00;;;;;;4995959;28;45439;-59
2022/03/13 15:09:29;;;;;;;3.85;3.00;;;14.60;38.00;;;;;;5012988;28;45263;-58
2022/03/13 15:11:55;;;;;;;5.85;3.22;;;14.70;38.10;;;;;;5010329;28;45467;-58
2022/03/13 15:14:20;;;;;;;4.00;2.58;;;14.70;38.20;;;;;;5014337;28;45158;-60
2022/03/13 15:16:46;;;;;;;4.00;3.08;;;14.70;38.30;;;;;;5012036;28;45378;-58
2022/03/13 15:19:11;;;;;;;4.53;3.15;;;14.60;38.30;;;;;;5011762;28;44827;-60
2022/03/13 15:21:38;;;;;;;4.30;2.90;;;14.70;38.40;;;;;;5008206;28;46244;-60
2022/03/13 15:24:04;;;;;;;4.18;2.90;;;14.60;38.30;;;;;;5013578;28;45270;-57
2022/03/13 15:26:29;;;;;;;5.35;2.92;;;14.70;38.40;;;;;;5001348;28;45323;-58
2022/03/13 15:28:55;;;;;;;4.32;2.80;;;14.70;38.50;;;;;;5002462;28;45270;-58
2022/03/13 15:31:21;;;;;;;3.85;2.67;;;14.60;38.40;;;;;;5013380;28;45437;-57
2022/03/13 15:33:48;;;;;;;4.75;3.13;;;14.70;38.50;;;;;;5003029;28;44712;-58
2022/03/13 15:36:14;;;;;;;4.65;3.38;;;14.70;38.60;;;;;;5014869;28;45204;-57
2022/03/13 15:38:39;;;;;;;4.63;3.13;;;14.70;38.60;;;;;;5006283;28;45426;-55
2022/03/13 15:41:05;;;;;;;4.22;2.65;;;14.70;38.70;;;;;;5011989;28;46123;-58
2022/03/13 15:43:31;;;;;;;4.15;3.00;;;14.70;38.70;;;;;;5013835;28;45181;-55
2022/03/13 15:45:57;;;;;;;4.60;2.78;;;14.70;38.80;;;;;;5009969;28;45450;-55
2022/03/13 15:48:23;;;;;;;4.07;3.03;;;14.70;38.80;;;;;;5011105;28;45434;-56
2022/03/13 15:50:48;;;;;;;5.22;3.00;;;14.70;38.80;;;;;;5005185;28;45291;-58
2022/03/13 15:53:14;;;;;;;4.55;2.92;;;14.70;38.80;;;;;;5007714;28;45847;-55
2022/03/13 15:55:40;;;;;;;3.25;2.45;;;14.70;38.80;;;;;;4996818;28;45136;-57
2022/03/13 15:58:06;;;;;;;9.30;3.42;;;14.70;38.90;;;;;;5013545;28;45270;-56
2022/03/13 16:00:31;;;;;;;5.00;2.97;;;14.70;38.90;;;;;;5008176;28;46627;-58
2022/03/13 16:02:58;;;;;;;3.85;2.83;;;14.70;38.90;;;;;;5008392;28;45408;-58
2022/03/13 16:05:24;;;;;;;4.50;2.78;;;14.70;39.00;;;;;;4999929;28;45611;-59
2022/03/13 16:07:49;;;;;;;3.75;2.58;;;14.70;39.00;;;;;;5011085;28;46051;-59
2022/03/13 16:10:15;;;;;;;4.97;3.35;;;14.70;39.10;;;;;;5011597;28;46868;-58
2022/03/13 16:12:41;;;;;;;4.47;2.70;;;14.70;39.10;;;;;;5010445;28;45362;-60
2022/03/13 16:15:08;;;;;;;4.53;2.90;;;14.70;39.10;;;;;;5014544;28;44821;-57
2022/03/13 16:17:34;;;;;;;4.47;2.92;;;14.70;39.20;;;;;;5003076;28;45987;-58
2022/03/13 16:20:00;;;;;;;4.43;2.67;;;14.70;39.30;;;;;;5009042;28;45537;-60
2022/03/13 16:22:26;;;;;;;3.67;2.60;;;14.70;39.40;;;;;;5011816;28;44659;-58
2022/03/13 16:24:52;;;;;;;4.15;2.60;;;14.70;39.40;;;;;;4996746;28;45604;-59
2022/03/13 16:27:18;;;;;;;3.78;2.70;;;14.70;39.40;;;;;;5012872;28;45382;-59
2022/03/13 16:29:44;;;;;;;4.35;2.85;;;14.70;39.50;;;;;;5002828;28;47062;-58
2022/03/13 16:32:11;;;;;;;4.10;2.78;;;14.70;39.50;;;;;;5010654;28;44958;-58
2022/03/13 16:34:37;;;;;;;3.60;2.65;;;14.70;39.60;;;;;;5008165;28;45645;-57
2022/03/13 16:37:03;;;;;;;3.42;2.50;;;14.70;39.60;;;;;;4993731;28;45670;-58
2022/03/13 16:39:29;;;;;;;3.25;2.50;;;14.70;39.70;;;;;;5010027;28;46033;-57
2022/03/13 16:41:54;;;;;;;4.00;2.65;;;14.60;39.60;;;;;;5007499;28;45531;-55
2022/03/13 16:44:20;;;;;;;3.83;2.65;;;14.70;39.70;;;;;;5005547;28;45869;-59
2022/03/13 16:46:46;;;;;;;3.33;2.53;;;14.70;39.70;;;;;;5010985;28;45158;-57
2022/03/13 16:49:11;;;;;;;3.28;2.08;;;14.70;39.80;;;;;;5010716;28;45981;-55